METAR Data

Data at: 2230 UTC 01 Dec 2021

METAR for:KGNR (Greenville Muni, ME, US)
Text:KGNR 012156Z AUTO 32010G19KT M04/M10 A2997 RMK AO1 SLP172 T10391100
Temperature: -3.9°C ( 25°F)
Dewpoint:-10.0°C ( 14°F) [RH = 62%]
Pressure (altimeter):29.97 inches Hg (1015.0 mb) [Sea level pressure: 1017.2 mb]
Winds:from the NW (320 degrees) at 12 MPH (10 knots; 5.1 m/s) gusting to 22 MPH (19 knots; 9.8 m/s)
QC Flag:automated observation with no human augmentation